createdAt,value
2023-05-16T00:03:28.503Z,12.30
2023-05-16T00:07:31.535Z,12.60
2023-05-16T00:11:34.191Z,12.23
2023-05-16T00:15:38.700Z,11.45
2023-05-16T00:19:42.454Z,12.45
2023-05-16T00:23:44.709Z,11.38
2023-05-16T00:27:46.838Z,11.02
2023-05-16T00:31:49.511Z,11.20
2023-05-16T00:35:54.067Z,11.00
2023-05-16T00:39:56.262Z,11.95
2023-05-16T00:43:58.407Z,11.13
2023-05-16T00:48:00.619Z,13.45
2023-05-16T00:52:04.124Z,11.07
2023-05-16T00:56:07.088Z,11.23
2023-05-16T01:00:10.968Z,9.57
2023-05-16T01:04:17.733Z,10.00
2023-05-16T01:08:22.313Z,8.88
2023-05-16T01:12:36.644Z,10.98
2023-05-16T01:16:57.183Z,9.63
2023-05-16T01:21:04.160Z,8.90
2023-05-16T01:25:21.852Z,9.30
2023-05-16T01:29:23.967Z,9.45
2023-05-16T01:33:26.071Z,8.98
2023-05-16T01:37:53.055Z,8.48
2023-05-16T01:42:06.240Z,8.13
2023-05-16T01:46:15.394Z,7.38
2023-05-16T01:50:19.116Z,8.40
2023-05-16T01:54:23.641Z,7.78
2023-05-16T01:58:29.594Z,6.75
2023-05-16T02:02:33.672Z,6.53
2023-05-16T02:06:35.896Z,6.35
2023-05-16T02:10:44.132Z,6.00
2023-05-16T02:14:46.459Z,6.45
2023-05-16T02:18:48.735Z,6.43
2023-05-16T02:22:50.840Z,5.50
2023-05-16T02:26:52.932Z,5.68
2023-05-16T02:31:01.672Z,4.70
2023-05-16T02:35:04.599Z,5.18
2023-05-16T02:39:07.837Z,4.95
2023-05-16T02:43:10.365Z,5.20
2023-05-16T02:47:12.774Z,4.68
2023-05-16T02:51:14.894Z,4.55
2023-05-16T02:55:22.423Z,4.82
2023-05-16T02:59:24.797Z,5.07
2023-05-16T03:03:27.049Z,5.00
2023-05-16T03:07:29.557Z,4.45
2023-05-16T03:11:32.139Z,4.97
2023-05-16T03:15:34.358Z,5.15
2023-05-16T03:19:36.500Z,4.72
2023-05-16T03:23:38.629Z,5.70
2023-05-16T03:27:40.898Z,5.90
2023-05-16T03:31:43.284Z,5.03
2023-05-16T03:35:46.321Z,5.85
2023-05-16T03:39:48.491Z,5.38
2023-05-16T03:43:50.755Z,5.47
2023-05-16T03:47:52.962Z,6.35
2023-05-16T03:51:55.630Z,5.30
2023-05-16T03:55:57.724Z,6.30
2023-05-16T04:00:00.971Z,6.43
2023-05-16T04:04:03.192Z,6.15
2023-05-16T04:08:05.527Z,5.63
2023-05-16T04:12:12.345Z,5.63
2023-05-16T04:16:14.471Z,5.35
2023-05-16T04:20:17.207Z,5.70
2023-05-16T04:24:19.634Z,6.25
2023-05-16T04:28:22.417Z,5.65
2023-05-16T04:32:25.018Z,6.18
2023-05-16T04:36:30.130Z,5.60
2023-05-16T04:40:32.828Z,5.95
2023-05-16T04:44:34.942Z,6.90
2023-05-16T04:48:37.055Z,6.65
2023-05-16T04:52:39.169Z,6.88
2023-05-16T04:56:41.423Z,7.03
2023-05-16T05:00:43.568Z,6.53
2023-05-16T05:04:45.764Z,6.97
2023-05-16T05:08:48.080Z,7.78
2023-05-16T05:12:50.133Z,9.20
2023-05-16T05:16:52.286Z,6.32
2023-05-16T05:20:54.601Z,7.80
2023-05-16T05:24:56.768Z,9.40
2023-05-16T05:29:05.301Z,10.23
2023-05-16T05:33:08.360Z,7.07
2023-05-16T05:37:10.787Z,9.10
2023-05-16T05:41:12.921Z,9.85
2023-05-16T05:45:16.263Z,8.00
2023-05-16T05:49:18.541Z,7.28
2023-05-16T05:53:23.575Z,9.13
2023-05-16T05:57:26.283Z,7.63
2023-05-16T06:01:30.172Z,7.43
2023-05-16T06:05:32.282Z,6.78
2023-05-16T06:09:34.295Z,7.93
2023-05-16T06:13:36.592Z,8.13
2023-05-16T06:17:39.091Z,9.63
2023-05-16T06:21:41.244Z,8.20
2023-05-16T06:25:43.703Z,12.15
2023-05-16T06:29:45.964Z,8.23
2023-05-16T06:33:48.310Z,7.45
2023-05-16T06:37:50.481Z,6.97
2023-05-16T06:41:56.169Z,6.55
2023-05-16T06:45:59.237Z,6.10
2023-05-16T06:50:01.558Z,4.82
2023-05-16T06:54:04.406Z,5.28
2023-05-16T06:58:06.589Z,5.03
2023-05-16T07:02:08.793Z,3.92
2023-05-16T07:06:10.906Z,4.10
2023-05-16T07:10:13.148Z,3.78
2023-05-16T07:14:15.399Z,3.75
2023-05-16T07:18:17.677Z,3.25
2023-05-16T07:22:19.916Z,3.40
2023-05-16T07:32:16.744Z,5.70
2023-05-16T07:36:19.215Z,3.55
2023-05-16T07:40:28.396Z,3.40
2023-05-16T07:44:31.313Z,3.15
2023-05-16T07:48:33.587Z,3.17
2023-05-16T07:52:35.682Z,3.45
2023-05-16T07:56:37.844Z,3.10
2023-05-16T08:00:40.439Z,2.80
2023-05-16T08:04:42.486Z,3.10
2023-05-16T08:08:44.577Z,3.53
2023-05-16T08:12:47.193Z,2.72
2023-05-16T08:16:49.397Z,3.03
2023-05-16T08:20:51.481Z,2.75
2023-05-16T08:24:57.952Z,2.55
2023-05-16T08:29:00.041Z,2.38
2023-05-16T08:33:05.142Z,2.13
2023-05-16T08:37:07.451Z,10.05
2023-05-16T08:41:09.547Z,3.90
2023-05-16T08:45:11.897Z,2.45
2023-05-16T08:49:14.512Z,3.00
2023-05-16T08:53:22.739Z,2.22
2023-05-16T08:57:26.307Z,1.98
2023-05-16T09:01:29.004Z,1.90
2023-05-16T09:05:32.470Z,2.03
2023-05-16T09:09:34.622Z,1.98
2023-05-16T09:13:39.345Z,2.05
2023-05-16T09:17:46.770Z,2.47
2023-05-16T09:21:49.233Z,2.70
2023-05-16T09:25:53.655Z,3.13
2023-05-16T09:34:00.149Z,4.10
2023-05-16T09:38:02.586Z,5.25
2023-05-16T09:42:05.011Z,5.95
2023-05-16T09:46:07.272Z,9.88
2023-05-16T09:50:09.580Z,10.00
2023-05-16T09:54:11.687Z,10.88
2023-05-16T09:58:18.011Z,11.95
2023-05-16T10:02:20.967Z,12.45
2023-05-16T10:06:23.711Z,11.80
2023-05-16T10:10:28.714Z,12.98
2023-05-16T10:14:35.973Z,11.65
2023-05-16T10:18:39.716Z,11.13
2023-05-16T10:22:44.381Z,9.77
2023-05-16T10:26:46.522Z,8.93
2023-05-16T10:30:49.022Z,8.60
2023-05-16T10:34:52.009Z,7.53
2023-05-16T10:38:55.673Z,7.75
2023-05-16T10:42:59.821Z,7.33
2023-05-16T10:55:24.788Z,7.25
2023-05-16T10:59:28.714Z,8.40
2023-05-16T11:03:31.154Z,7.38
2023-05-16T11:07:36.683Z,7.05
2023-05-16T11:12:04.160Z,7.30
2023-05-16T11:16:48.303Z,6.72
2023-05-16T11:20:53.036Z,6.33
2023-05-16T11:25:06.836Z,6.32
2023-05-16T11:29:09.008Z,5.45
2023-05-16T11:33:13.067Z,4.70
2023-05-16T11:37:16.059Z,3.95
2023-05-16T11:41:18.933Z,3.83
2023-05-16T11:45:24.599Z,3.65
2023-05-16T11:49:28.938Z,3.05
2023-05-16T11:53:31.294Z,3.05
2023-05-16T11:57:34.281Z,3.30
2023-05-16T12:01:40.295Z,3.35
2023-05-16T12:06:01.025Z,3.60
2023-05-16T12:10:11.177Z,4.05
2023-05-16T12:14:14.593Z,3.50
2023-05-16T12:18:17.444Z,3.63
2023-05-16T12:22:20.515Z,3.47
2023-05-16T12:26:33.732Z,3.90
2023-05-16T12:30:35.911Z,3.70
2023-05-16T12:34:38.094Z,3.60
2023-05-16T12:38:40.461Z,3.33
2023-05-16T12:42:44.985Z,3.70
2023-05-16T12:46:51.595Z,3.38
2023-05-16T12:50:53.851Z,3.03
2023-05-16T12:54:55.952Z,3.53
2023-05-16T12:58:58.131Z,3.47
2023-05-16T13:03:00.447Z,3.17
2023-05-16T13:07:04.883Z,3.72
2023-05-16T13:11:08.111Z,2.92
2023-05-16T13:15:15.502Z,3.63
2023-05-16T13:19:17.860Z,3.00
2023-05-16T13:23:20.491Z,2.67
2023-05-16T13:27:22.681Z,3.33
2023-05-16T13:31:24.912Z,5.22
2023-05-16T13:35:27.396Z,3.42
2023-05-16T13:39:29.813Z,2.90
2023-05-16T13:43:33.305Z,2.63
2023-05-16T13:47:37.871Z,2.80
2023-05-16T13:51:40.419Z,3.28
2023-05-16T13:55:42.808Z,3.22
2023-05-16T14:00:11.593Z,3.10
2023-05-16T14:04:13.765Z,3.10
2023-05-16T14:08:15.993Z,2.97
2023-05-16T14:12:18.326Z,3.22
2023-05-16T14:16:23.059Z,3.47
2023-05-16T14:20:25.461Z,3.80
2023-05-16T14:24:29.046Z,4.25
2023-05-16T14:28:32.935Z,4.18
2023-05-16T14:32:35.253Z,4.18
2023-05-16T14:36:37.822Z,3.90
2023-05-16T14:40:40.261Z,4.20
2023-05-16T14:44:42.642Z,5.20
2023-05-16T14:48:44.829Z,4.75
2023-05-16T14:52:47.262Z,5.80
2023-05-16T14:56:50.936Z,6.28
2023-05-16T15:00:53.431Z,6.25
2023-05-16T15:04:56.036Z,6.07
2023-05-16T15:08:58.318Z,6.05
2023-05-16T15:13:00.474Z,6.82
2023-05-16T15:17:04.423Z,6.70
2023-05-16T15:21:07.607Z,6.72
2023-05-16T15:25:11.514Z,7.15
2023-05-16T15:29:13.867Z,6.93
2023-05-16T15:33:16.025Z,7.25
2023-05-16T15:37:18.170Z,7.50
2023-05-16T15:41:37.146Z,7.55
2023-05-16T15:45:44.602Z,8.15
2023-05-16T15:49:47.737Z,8.50
2023-05-16T15:53:49.907Z,8.82
2023-05-16T15:57:52.226Z,8.25
2023-05-16T16:01:54.442Z,8.55
2023-05-16T16:05:57.039Z,9.18
2023-05-16T16:09:59.715Z,8.60
2023-05-16T16:14:01.939Z,8.05
2023-05-16T16:18:04.434Z,7.88
2023-05-16T16:22:06.766Z,7.90
2023-05-16T16:26:08.935Z,7.82
2023-05-16T16:30:11.718Z,7.20
2023-05-16T16:34:14.110Z,7.82
2023-05-16T16:38:16.771Z,8.27
2023-05-16T16:42:19.207Z,7.80
2023-05-16T16:46:23.169Z,8.15
2023-05-16T16:50:25.522Z,8.30
2023-05-16T16:54:28.685Z,7.63
2023-05-16T16:58:30.833Z,7.45
2023-05-16T17:02:33.755Z,6.80
2023-05-16T17:06:36.207Z,7.60
2023-05-16T17:10:39.650Z,7.43
2023-05-16T17:14:44.847Z,7.63
2023-05-16T17:19:04.083Z,7.07
2023-05-16T17:23:06.336Z,6.93
2023-05-16T17:27:08.903Z,6.97
2023-05-16T17:31:11.430Z,5.97
2023-05-16T17:35:13.562Z,6.68
2023-05-16T17:39:16.386Z,5.70
2023-05-16T17:43:18.760Z,5.53
2023-05-16T17:47:21.120Z,5.40
2023-05-16T17:51:23.825Z,5.10
2023-05-16T17:55:26.475Z,5.00
2023-05-16T17:59:28.980Z,5.10
2023-05-16T18:03:31.794Z,4.45
2023-05-16T18:07:34.671Z,5.18
2023-05-16T18:11:39.045Z,6.13
2023-05-16T18:19:43.853Z,5.05
2023-05-16T18:23:46.264Z,4.80
2023-05-16T18:27:48.461Z,4.72
2023-05-16T18:31:50.900Z,4.82
2023-05-16T18:35:55.404Z,4.93
2023-05-16T18:39:58.514Z,4.40
2023-05-16T18:44:00.637Z,5.28
2023-05-16T18:48:03.011Z,5.20
2023-05-16T18:52:07.996Z,6.55
2023-05-16T18:56:10.473Z,6.55
2023-05-16T19:00:13.455Z,6.70
2023-05-16T19:04:16.290Z,6.30
2023-05-16T19:08:20.950Z,6.35
2023-05-16T19:12:23.631Z,7.40
2023-05-16T19:16:26.469Z,5.85
2023-05-16T19:20:29.266Z,5.90
2023-05-16T19:24:32.092Z,5.38
2023-05-16T19:28:34.796Z,4.97
2023-05-16T19:32:37.050Z,5.40
2023-05-16T19:36:39.414Z,5.40
2023-05-16T19:40:42.279Z,5.10
2023-05-16T19:44:46.266Z,5.10
2023-05-16T19:48:50.586Z,4.70
2023-05-16T19:52:53.207Z,4.90
2023-05-16T20:32:24.692Z,5.60
2023-05-16T20:36:27.861Z,5.55
2023-05-16T20:40:30.184Z,5.63
2023-05-16T20:44:33.869Z,5.57
2023-05-16T20:48:36.800Z,5.22
2023-05-16T20:52:40.627Z,5.20
2023-05-16T20:56:43.016Z,4.60
2023-05-16T21:00:45.200Z,4.65
2023-05-16T21:04:47.819Z,4.88
2023-05-16T21:13:08.137Z,4.85
2023-05-16T21:17:10.612Z,5.20
2023-05-16T21:21:12.833Z,4.97
2023-05-16T21:25:15.174Z,4.80
2023-05-16T21:29:19.424Z,4.93
2023-05-16T21:33:22.013Z,5.18
2023-05-16T21:37:24.361Z,4.88
2023-05-16T21:41:27.452Z,4.78
2023-05-16T21:45:29.888Z,4.95
2023-05-16T21:49:33.175Z,4.90
2023-05-16T21:53:35.991Z,4.90
2023-05-16T21:57:38.122Z,5.10
2023-05-16T22:01:40.515Z,4.68
2023-05-16T22:05:43.172Z,4.68
2023-05-16T22:09:45.734Z,4.93
2023-05-16T22:13:47.975Z,4.65
2023-05-16T22:17:51.337Z,4.38
2023-05-16T22:21:53.713Z,4.27
2023-05-16T22:25:55.999Z,4.35
2023-05-16T22:29:58.247Z,4.53
2023-05-16T22:34:02.723Z,4.72
2023-05-16T22:42:07.784Z,4.50
2023-05-16T22:46:09.918Z,4.78
2023-05-16T22:50:12.441Z,4.50
2023-05-16T22:54:15.301Z,5.20
2023-05-16T22:58:17.480Z,5.35
2023-05-16T23:02:19.710Z,4.65
2023-05-16T23:06:21.831Z,4.25
2023-05-16T23:10:23.995Z,4.63
2023-05-16T23:14:27.444Z,4.50
2023-05-16T23:18:29.759Z,4.28
2023-05-16T23:22:32.057Z,4.95
2023-05-16T23:26:34.462Z,5.30
2023-05-16T23:30:36.662Z,5.05
2023-05-16T23:34:38.925Z,5.25
2023-05-16T23:38:41.143Z,5.28
2023-05-16T23:42:43.286Z,6.10
2023-05-16T23:46:45.543Z,5.80
2023-05-16T23:50:48.030Z,5.97
2023-05-16T23:54:51.586Z,6.50
2023-05-16T23:58:53.913Z,6.68
